createdAt,value
2018-01-26T00:01:20.678Z,5.33
2018-01-26T00:03:49.087Z,5.07
2018-01-26T00:06:17.298Z,5.00
2018-01-26T00:08:45.462Z,7.03
2018-01-26T00:11:12.938Z,6.07
2018-01-26T00:13:40.682Z,7.87
2018-01-26T00:16:08.154Z,9.20
2018-01-26T00:18:35.618Z,5.07
2018-01-26T00:21:03.367Z,6.80
2018-01-26T00:23:30.910Z,4.93
2018-01-26T00:25:58.741Z,5.00
2018-01-26T00:28:26.215Z,7.97
2018-01-26T00:30:53.935Z,5.37
2018-01-26T00:33:21.430Z,4.90
2018-01-26T00:35:49.368Z,4.90
2018-01-26T00:40:44.054Z,5.53
2018-01-26T00:43:11.527Z,7.30
2018-01-26T00:45:38.984Z,7.17
2018-01-26T00:48:06.455Z,9.83
2018-01-26T00:50:33.904Z,8.63
2018-01-26T00:53:01.375Z,6.00
2018-01-26T00:55:28.824Z,8.27
2018-01-26T00:57:56.337Z,5.93
2018-01-26T01:00:23.788Z,7.20
2018-01-26T01:02:51.237Z,6.53
2018-01-26T01:05:18.720Z,6.27
2018-01-26T01:07:52.132Z,9.00
2018-01-26T01:10:19.617Z,6.23
2018-01-26T01:12:47.071Z,7.37
2018-01-26T01:15:14.539Z,8.23
2018-01-26T01:17:42.011Z,6.40
2018-01-26T01:20:09.485Z,8.57
2018-01-26T01:22:36.940Z,6.60
2018-01-26T01:25:04.406Z,7.77
2018-01-26T01:27:31.854Z,8.23
2018-01-26T01:29:59.315Z,7.57
2018-01-26T01:32:26.775Z,5.90
2018-01-26T01:34:54.248Z,5.50
2018-01-26T01:37:21.726Z,5.77
2018-01-26T01:39:49.210Z,7.70
2018-01-26T01:42:16.653Z,8.97
2018-01-26T01:44:44.114Z,5.20
2018-01-26T01:47:11.558Z,6.80
2018-01-26T01:49:39.026Z,6.00
2018-01-26T01:52:06.487Z,8.20
2018-01-26T01:54:33.954Z,5.60
2018-01-26T01:57:01.402Z,6.33
2018-01-26T01:59:28.867Z,6.57
2018-01-26T02:01:56.322Z,7.77
2018-01-26T02:04:23.803Z,8.37
2018-01-26T02:06:51.251Z,7.70
2018-01-26T02:09:18.720Z,6.47
2018-01-26T02:11:46.166Z,7.13
2018-01-26T02:14:13.634Z,7.67
2018-01-26T02:16:41.079Z,7.67
2018-01-26T02:19:08.554Z,8.57
2018-01-26T02:21:36.015Z,9.87
2018-01-26T02:24:21.107Z,8.47
2018-01-26T02:26:48.550Z,8.37
2018-01-26T02:29:16.063Z,7.00
2018-01-26T02:31:43.515Z,9.43
2018-01-26T02:34:10.972Z,10.23
2018-01-26T02:36:38.440Z,9.17
2018-01-26T02:39:05.895Z,7.00
2018-01-26T02:41:33.367Z,9.47
2018-01-26T02:44:00.812Z,10.57
2018-01-26T02:46:28.283Z,8.77
2018-01-26T02:48:55.730Z,7.57
2018-01-26T02:51:23.200Z,13.53
2018-01-26T02:53:50.666Z,8.13
2018-01-26T02:56:18.151Z,8.93
2018-01-26T02:58:45.594Z,7.83
2018-01-26T03:01:13.063Z,6.00
2018-01-26T03:03:40.515Z,7.00
2018-01-26T03:06:07.986Z,6.63
2018-01-26T03:08:35.434Z,5.40
2018-01-26T03:11:02.902Z,8.57
2018-01-26T03:13:30.350Z,5.93
2018-01-26T03:15:57.821Z,8.40
2018-01-26T03:18:25.351Z,7.83
2018-01-26T03:20:52.827Z,9.47
2018-01-26T03:23:20.287Z,10.57
2018-01-26T03:25:47.763Z,11.93
2018-01-26T03:28:15.210Z,7.03
2018-01-26T03:30:42.718Z,12.37
2018-01-26T03:33:10.169Z,7.63
2018-01-26T03:35:37.641Z,6.13
2018-01-26T03:38:05.087Z,9.10
2018-01-26T03:40:32.562Z,6.60
2018-01-26T03:43:00.012Z,8.50
2018-01-26T03:45:27.462Z,11.33
2018-01-26T03:47:54.926Z,9.53
2018-01-26T03:50:22.375Z,9.60
2018-01-26T03:52:49.870Z,9.83
2018-01-26T03:55:17.326Z,8.43
2018-01-26T03:57:44.806Z,12.13
2018-01-26T04:00:12.255Z,9.30
2018-01-26T04:02:39.730Z,10.00
2018-01-26T04:05:07.186Z,10.70
2018-01-26T04:07:34.666Z,12.83
2018-01-26T04:10:02.126Z,11.43
2018-01-26T04:12:29.602Z,11.40
2018-01-26T04:14:57.067Z,12.97
2018-01-26T04:17:24.543Z,12.63
2018-01-26T04:19:52.009Z,10.03
2018-01-26T04:22:19.482Z,9.37
2018-01-26T04:24:46.939Z,9.83
2018-01-26T04:27:14.418Z,10.00
2018-01-26T04:29:41.875Z,13.53
2018-01-26T04:32:09.362Z,9.53
2018-01-26T04:34:36.815Z,10.83
2018-01-26T04:37:04.291Z,9.13
2018-01-26T04:39:31.751Z,9.90
2018-01-26T04:41:59.216Z,9.87
2018-01-26T04:44:26.678Z,11.27
2018-01-26T04:46:54.154Z,10.50
2018-01-26T04:49:21.610Z,10.83
2018-01-26T04:51:49.087Z,12.40
2018-01-26T04:54:16.543Z,11.17
2018-01-26T04:56:44.024Z,11.90
2018-01-26T04:59:11.478Z,10.80
2018-01-26T05:01:38.946Z,9.27
2018-01-26T05:04:06.399Z,15.87
2018-01-26T05:06:33.862Z,11.67
2018-01-26T05:09:01.385Z,11.37
2018-01-26T05:11:28.844Z,11.83
2018-01-26T05:13:56.318Z,14.27
2018-01-26T05:16:23.769Z,9.53
2018-01-26T05:18:51.247Z,15.87
2018-01-26T05:21:18.702Z,15.07
2018-01-26T05:23:46.170Z,14.87
2018-01-26T05:26:13.630Z,12.90
2018-01-26T05:28:41.110Z,11.67
2018-01-26T05:31:08.566Z,12.63
2018-01-26T05:33:36.051Z,12.63
2018-01-26T05:36:03.523Z,14.37
2018-01-26T05:38:30.995Z,9.97
2018-01-26T05:40:58.458Z,10.40
2018-01-26T05:43:25.930Z,13.90
2018-01-26T05:45:53.399Z,11.13
2018-01-26T05:48:20.907Z,10.83
2018-01-26T05:50:48.367Z,13.17
2018-01-26T05:53:15.843Z,15.17
2018-01-26T05:55:43.298Z,15.53
2018-01-26T05:58:10.778Z,12.50
2018-01-26T06:00:38.239Z,16.40
2018-01-26T06:03:05.718Z,22.47
2018-01-26T06:05:33.271Z,12.67
2018-01-26T06:08:00.755Z,13.23
2018-01-26T06:10:28.216Z,15.17
2018-01-26T06:12:55.691Z,16.07
2018-01-26T06:15:23.155Z,12.63
2018-01-26T06:17:50.703Z,12.83
2018-01-26T06:20:18.167Z,12.10
2018-01-26T06:22:45.643Z,14.17
2018-01-26T06:25:13.099Z,14.57
2018-01-26T06:27:40.554Z,17.17
2018-01-26T06:30:08.032Z,11.97
2018-01-26T06:32:35.495Z,13.47
2018-01-26T06:35:02.976Z,12.47
2018-01-26T06:40:04.279Z,10.63
2018-01-26T06:42:31.739Z,9.70
2018-01-26T06:44:59.219Z,8.80
2018-01-26T06:47:26.675Z,9.37
2018-01-26T06:49:54.379Z,10.17
2018-01-26T06:52:21.835Z,10.37
2018-01-26T06:54:49.321Z,10.97
2018-01-26T06:57:16.794Z,11.30
2018-01-26T06:59:44.276Z,10.73
2018-01-26T07:02:11.722Z,9.03
2018-01-26T07:04:39.203Z,11.20
2018-01-26T07:07:06.661Z,10.87
2018-01-26T07:09:34.143Z,9.37
2018-01-26T07:12:01.608Z,10.30
2018-01-26T07:14:29.098Z,12.03
2018-01-26T07:16:56.563Z,13.30
2018-01-26T07:19:24.085Z,11.07
2018-01-26T07:21:51.526Z,14.87
2018-01-26T07:24:19.020Z,14.60
2018-01-26T07:26:46.487Z,10.67
2018-01-26T07:29:13.967Z,11.73
2018-01-26T07:31:44.439Z,15.13
2018-01-26T07:34:11.941Z,13.87
2018-01-26T07:36:39.441Z,12.50
2018-01-26T07:39:06.894Z,9.87
2018-01-26T07:41:34.355Z,12.13
2018-01-26T07:44:01.851Z,8.97
2018-01-26T07:46:29.310Z,15.27
2018-01-26T07:48:56.811Z,15.60
2018-01-26T07:51:24.281Z,14.60
2018-01-26T07:53:51.767Z,13.53
2018-01-26T07:56:19.227Z,12.70
2018-01-26T07:58:46.691Z,10.37
2018-01-26T08:01:14.174Z,12.40
2018-01-26T08:03:41.635Z,9.40
2018-01-26T08:06:09.110Z,11.60
2018-01-26T08:08:36.590Z,9.80
2018-01-26T08:11:04.067Z,8.07
2018-01-26T08:13:31.527Z,9.60
2018-01-26T08:15:59.001Z,8.27
2018-01-26T08:18:26.450Z,9.67
2018-01-26T08:20:53.928Z,10.63
2018-01-26T08:23:21.382Z,8.53
2018-01-26T08:25:48.863Z,10.17
2018-01-26T08:28:16.322Z,11.20
2018-01-26T08:30:43.794Z,15.60
2018-01-26T08:33:11.255Z,10.23
2018-01-26T08:35:38.867Z,14.17
2018-01-26T08:38:06.336Z,11.50
2018-01-26T08:40:33.819Z,10.47
2018-01-26T08:43:01.279Z,9.20
2018-01-26T08:45:28.778Z,10.43
2018-01-26T08:47:56.256Z,14.50
2018-01-26T08:50:23.738Z,10.33
2018-01-26T08:52:51.191Z,9.40
2018-01-26T08:55:19.585Z,16.20
2018-01-26T08:57:47.043Z,11.00
2018-01-26T09:00:14.528Z,8.67
2018-01-26T09:02:41.982Z,10.70
2018-01-26T09:05:09.510Z,9.40
2018-01-26T09:07:36.958Z,9.47
2018-01-26T09:10:04.430Z,8.17
2018-01-26T09:12:31.887Z,8.90
2018-01-26T09:14:59.363Z,9.47
2018-01-26T09:17:26.819Z,10.53
2018-01-26T09:19:54.270Z,8.77
2018-01-26T09:22:21.746Z,10.27
2018-01-26T09:24:49.212Z,7.93
2018-01-26T09:27:16.695Z,7.73
2018-01-26T09:29:44.165Z,10.27
2018-01-26T09:32:11.648Z,9.93
2018-01-26T09:34:39.131Z,7.00
2018-01-26T09:37:06.633Z,9.33
2018-01-26T09:39:34.083Z,7.23
2018-01-26T09:42:01.562Z,7.17
2018-01-26T09:44:29.011Z,5.90
2018-01-26T09:46:56.499Z,13.67
2018-01-26T09:49:23.960Z,8.77
2018-01-26T09:51:51.439Z,7.30
2018-01-26T09:54:18.902Z,7.67
2018-01-26T09:56:46.383Z,7.43
2018-01-26T09:59:13.842Z,9.97
2018-01-26T10:01:41.320Z,9.73
2018-01-26T10:04:08.781Z,7.77
2018-01-26T10:06:36.267Z,10.93
2018-01-26T10:09:03.727Z,12.07
2018-01-26T10:11:31.205Z,9.40
2018-01-26T10:13:58.662Z,8.60
2018-01-26T10:16:26.169Z,10.27
2018-01-26T10:18:53.630Z,7.73
2018-01-26T10:21:21.115Z,6.70
2018-01-26T10:23:48.582Z,7.23
2018-01-26T10:26:16.071Z,8.83
2018-01-26T10:28:43.543Z,10.33
2018-01-26T10:31:11.015Z,9.20
2018-01-26T10:33:38.482Z,9.57
2018-01-26T10:36:05.984Z,13.00
2018-01-26T10:38:33.455Z,12.73
2018-01-26T10:41:00.978Z,12.23
2018-01-26T10:43:28.471Z,13.33
2018-01-26T10:45:55.958Z,9.53
2018-01-26T10:48:23.435Z,7.83
2018-01-26T10:50:50.906Z,9.97
2018-01-26T10:53:18.395Z,9.33
2018-01-26T10:55:45.868Z,7.60
2018-01-26T10:58:13.364Z,9.20
2018-01-26T11:00:43.630Z,11.13
2018-01-26T11:03:11.114Z,8.57
2018-01-26T11:05:38.591Z,8.50
2018-01-26T11:08:06.115Z,8.47
2018-01-26T11:10:33.586Z,10.20
2018-01-26T11:13:01.067Z,8.70
2018-01-26T11:15:28.560Z,11.13
2018-01-26T11:17:56.056Z,8.67
2018-01-26T11:20:23.533Z,9.53
2018-01-26T11:22:52.039Z,8.40
2018-01-26T11:25:19.524Z,12.17
2018-01-26T11:27:47.987Z,10.33
2018-01-26T11:30:15.478Z,7.97
2018-01-26T11:32:42.958Z,8.43
2018-01-26T11:35:10.423Z,8.37
2018-01-26T11:37:37.899Z,9.20
2018-01-26T11:40:05.355Z,8.37
2018-01-26T11:42:32.831Z,8.33
2018-01-26T11:45:00.278Z,9.60
2018-01-26T11:47:27.751Z,9.33
2018-01-26T11:49:55.210Z,9.57
2018-01-26T11:52:22.690Z,11.77
2018-01-26T11:54:50.147Z,9.17
2018-01-26T11:57:17.623Z,8.67
2018-01-26T11:59:45.138Z,7.37
2018-01-26T12:02:12.618Z,12.03
2018-01-26T12:04:40.075Z,7.93
2018-01-26T12:07:07.554Z,8.57
2018-01-26T12:09:35.010Z,11.87
2018-01-26T12:12:02.466Z,7.43
2018-01-26T12:14:29.938Z,11.07
2018-01-26T12:16:57.398Z,8.80
2018-01-26T12:19:24.866Z,9.87
2018-01-26T12:21:52.319Z,8.63
2018-01-26T12:24:19.789Z,8.63
2018-01-26T12:26:47.238Z,6.87
2018-01-26T12:29:14.754Z,9.63
2018-01-26T12:31:42.211Z,7.83
2018-01-26T12:34:09.691Z,6.67
2018-01-26T12:36:37.154Z,7.90
2018-01-26T12:39:04.642Z,9.53
2018-01-26T12:41:32.090Z,9.77
2018-01-26T12:43:59.559Z,8.00
2018-01-26T12:46:27.001Z,6.37
2018-01-26T12:48:54.466Z,7.00
2018-01-26T12:51:21.914Z,8.03
2018-01-26T12:53:49.419Z,7.40
2018-01-26T12:56:16.945Z,6.20
2018-01-26T12:58:44.422Z,6.30
2018-01-26T13:01:11.911Z,10.30
2018-01-26T13:03:39.378Z,13.57
2018-01-26T13:06:06.834Z,10.73
2018-01-26T13:08:34.894Z,7.70
2018-01-26T13:11:02.359Z,9.43
2018-01-26T13:13:29.828Z,5.83
2018-01-26T13:15:57.290Z,4.57
2018-01-26T13:18:24.772Z,7.93
2018-01-26T13:20:52.236Z,10.83
2018-01-26T13:23:19.710Z,9.60
2018-01-26T13:25:47.170Z,11.03
2018-01-26T13:28:14.652Z,8.57
2018-01-26T13:30:42.104Z,9.53
2018-01-26T13:33:09.563Z,10.27
2018-01-26T13:35:37.182Z,7.87
2018-01-26T13:38:04.633Z,8.43
2018-01-26T13:40:32.123Z,6.63
2018-01-26T13:42:59.583Z,7.50
2018-01-26T13:45:27.066Z,9.87
2018-01-26T13:47:54.531Z,6.50
2018-01-26T13:50:22.007Z,9.93
2018-01-26T13:52:49.464Z,7.90
2018-01-26T13:55:16.959Z,11.37
2018-01-26T13:57:44.419Z,7.47
2018-01-26T14:00:11.902Z,14.20
2018-01-26T14:02:39.362Z,10.47
2018-01-26T14:05:06.834Z,10.03
2018-01-26T14:07:34.327Z,11.37
2018-01-26T14:10:01.817Z,9.93
2018-01-26T14:12:50.203Z,11.03
2018-01-26T14:15:17.679Z,9.27
2018-01-26T14:17:45.367Z,9.33
2018-01-26T14:20:12.879Z,10.03
2018-01-26T14:22:40.359Z,11.00
2018-01-26T14:25:08.839Z,12.43
2018-01-26T14:27:37.187Z,11.90
2018-01-26T14:30:04.751Z,8.37
2018-01-26T14:32:32.293Z,9.97
2018-01-26T14:34:59.844Z,12.40
2018-01-26T14:37:27.409Z,8.27
2018-01-26T14:39:55.006Z,11.30
2018-01-26T14:42:22.647Z,10.93
2018-01-26T14:44:50.200Z,8.10
2018-01-26T14:47:18.025Z,9.60
2018-01-26T14:49:45.623Z,9.53
2018-01-26T14:52:13.255Z,15.43
2018-01-26T14:54:40.798Z,8.53
2018-01-26T14:57:08.335Z,11.80
2018-01-26T14:59:35.863Z,11.90
2018-01-26T15:02:03.432Z,12.33
2018-01-26T15:04:30.935Z,8.90
2018-01-26T15:06:58.408Z,10.50
2018-01-26T15:09:25.875Z,11.47
2018-01-26T15:11:53.379Z,10.60
2018-01-26T15:14:20.862Z,11.07
2018-01-26T15:16:48.424Z,12.10
2018-01-26T15:19:15.891Z,11.83
2018-01-26T15:21:43.367Z,11.93
2018-01-26T15:24:10.841Z,22.83
2018-01-26T15:26:38.319Z,33.53
2018-01-26T15:29:06.110Z,37.60
2018-01-26T15:31:33.586Z,46.60
2018-01-26T15:34:01.053Z,41.33
2018-01-26T15:36:29.351Z,68.50
2018-01-26T15:39:03.323Z,102.80
2018-01-26T15:41:30.804Z,79.30
2018-01-26T15:43:58.371Z,33.77
2018-01-26T15:46:25.860Z,39.30
2018-01-26T15:48:53.330Z,20.30
2018-01-26T15:51:20.831Z,16.37
2018-01-26T15:53:48.360Z,14.87
2018-01-26T15:56:15.919Z,17.20
2018-01-26T15:58:43.462Z,11.60
2018-01-26T16:01:11.028Z,13.20
2018-01-26T16:03:38.545Z,13.30
2018-01-26T16:06:06.471Z,13.40
2018-01-26T16:08:33.992Z,13.27
2018-01-26T16:11:01.570Z,14.13
2018-01-26T16:13:29.138Z,12.73
2018-01-26T16:16:04.355Z,16.07
2018-01-26T16:18:32.024Z,12.57
2018-01-26T16:21:02.988Z,16.50
2018-01-26T16:23:30.502Z,20.90
2018-01-26T16:25:58.097Z,23.33
2018-01-26T16:28:25.698Z,26.40
2018-01-26T16:30:53.264Z,24.43
2018-01-26T16:33:20.810Z,16.67
2018-01-26T16:35:48.379Z,16.33
2018-01-26T16:38:15.937Z,18.50
2018-01-26T16:40:43.520Z,12.80
2018-01-26T16:43:11.053Z,26.00
2018-01-26T16:45:38.575Z,27.67
2018-01-26T16:48:06.142Z,25.23
2018-01-26T16:50:33.645Z,31.23
2018-01-26T16:53:01.155Z,24.83
2018-01-26T16:55:28.620Z,24.83
2018-01-26T16:57:56.103Z,25.37
2018-01-26T17:00:23.579Z,22.63
2018-01-26T17:02:51.078Z,21.03
2018-01-26T17:05:18.570Z,22.63
2018-01-26T17:07:46.069Z,22.13
2018-01-26T17:10:13.554Z,16.37
2018-01-26T17:12:41.043Z,20.83
2018-01-26T17:15:08.506Z,15.63
2018-01-26T17:17:35.986Z,15.47
2018-01-26T17:20:03.615Z,22.40
2018-01-26T17:22:31.098Z,16.53
2018-01-26T17:24:58.567Z,14.37
2018-01-26T17:27:26.059Z,12.27
2018-01-26T17:32:27.722Z,16.33
2018-01-26T17:34:55.207Z,14.80
2018-01-26T17:37:22.702Z,17.87
2018-01-26T17:39:50.194Z,16.10
2018-01-26T17:42:17.690Z,20.97
2018-01-26T17:44:45.249Z,16.37
2018-01-26T17:47:12.865Z,13.90
2018-01-26T17:49:40.413Z,13.83
2018-01-26T17:52:08.027Z,16.93
2018-01-26T17:54:35.600Z,15.33
2018-01-26T17:57:03.119Z,23.13
2018-01-26T17:59:30.595Z,22.13
2018-01-26T18:01:58.125Z,19.67
2018-01-26T18:04:25.597Z,13.43
2018-01-26T18:06:53.304Z,14.73
2018-01-26T18:09:20.858Z,24.13
2018-01-26T18:11:48.384Z,19.00
2018-01-26T18:14:15.965Z,18.57
2018-01-26T18:16:43.541Z,19.30
2018-01-26T18:19:11.114Z,26.03
2018-01-26T18:21:38.732Z,24.57
2018-01-26T18:24:06.316Z,24.97
2018-01-26T18:26:33.914Z,20.77
2018-01-26T18:29:01.485Z,15.63
2018-01-26T18:31:33.734Z,18.67
2018-01-26T18:34:01.372Z,20.17
2018-01-26T18:36:28.914Z,18.13
2018-01-26T18:38:56.551Z,18.70
2018-01-26T18:41:24.057Z,24.77
2018-01-26T18:43:51.597Z,24.23
2018-01-26T18:46:19.222Z,28.00
2018-01-26T18:48:46.816Z,26.17
2018-01-26T18:51:14.380Z,38.70
2018-01-26T18:53:41.965Z,59.50
2018-01-26T18:56:09.566Z,46.47
2018-01-26T18:58:37.140Z,44.27
2018-01-26T19:01:04.614Z,34.10
2018-01-26T19:03:32.223Z,40.83
2018-01-26T19:05:59.775Z,33.67
2018-01-26T19:08:27.342Z,27.43
2018-01-26T19:10:54.944Z,20.37
2018-01-26T19:13:22.535Z,22.23
2018-01-26T19:15:50.102Z,21.30
2018-01-26T19:18:17.699Z,24.90
2018-01-26T19:20:45.251Z,25.00
2018-01-26T19:23:12.819Z,27.90
2018-01-26T19:25:40.371Z,23.47
2018-01-26T19:28:07.986Z,24.33
2018-01-26T19:30:35.575Z,25.13
2018-01-26T19:33:03.221Z,24.77
2018-01-26T19:35:30.730Z,27.20
2018-01-26T19:37:59.227Z,33.50
2018-01-26T19:40:26.849Z,27.43
2018-01-26T19:42:54.488Z,34.07
2018-01-26T19:45:22.153Z,38.13
2018-01-26T19:47:49.824Z,41.17
2018-01-26T19:50:22.598Z,39.37
2018-01-26T19:52:50.591Z,40.90
2018-01-26T19:55:18.200Z,42.93
2018-01-26T19:57:45.759Z,44.27
2018-01-26T20:00:14.736Z,37.40
2018-01-26T20:02:42.568Z,39.33
2018-01-26T20:05:28.463Z,34.87
2018-01-26T20:08:00.888Z,34.67
2018-01-26T20:10:29.363Z,37.00
2018-01-26T20:13:02.964Z,37.13
2018-01-26T20:15:30.620Z,33.13
2018-01-26T20:17:58.110Z,29.73
2018-01-26T20:20:25.611Z,25.93
2018-01-26T20:22:53.084Z,21.43
2018-01-26T20:25:20.566Z,20.70
2018-01-26T20:27:48.027Z,19.23
2018-01-26T20:30:15.513Z,18.87
2018-01-26T20:32:42.979Z,23.93
2018-01-26T20:35:10.489Z,19.93
2018-01-26T20:37:37.951Z,19.77
2018-01-26T20:40:05.428Z,19.53
2018-01-26T20:42:32.893Z,17.77
2018-01-26T20:45:00.378Z,16.83
2018-01-26T20:47:27.844Z,18.77
2018-01-26T20:49:55.344Z,18.03
2018-01-26T20:52:22.810Z,18.90
2018-01-26T20:54:50.274Z,12.90
2018-01-26T20:57:17.752Z,12.70
2018-01-26T20:59:45.211Z,14.23
2018-01-26T21:02:12.691Z,15.23
2018-01-26T21:04:40.167Z,22.73
2018-01-26T21:07:07.651Z,23.47
2018-01-26T21:09:35.148Z,18.07
2018-01-26T21:12:02.627Z,17.60
2018-01-26T21:14:30.096Z,23.67
2018-01-26T21:16:57.579Z,22.73
2018-01-26T21:19:25.049Z,31.00
2018-01-26T21:21:52.539Z,33.83
2018-01-26T21:24:20.938Z,33.37
2018-01-26T21:26:48.732Z,36.77
2018-01-26T21:29:16.396Z,38.37
2018-01-26T21:31:44.399Z,41.90
2018-01-26T21:34:12.156Z,41.13
2018-01-26T21:36:39.659Z,44.07
2018-01-26T21:39:07.131Z,32.77
2018-01-26T21:41:34.715Z,28.20
2018-01-26T21:44:02.742Z,25.73
2018-01-26T21:46:31.292Z,29.63
2018-01-26T21:48:58.825Z,36.03
2018-01-26T21:51:26.432Z,39.20
2018-01-26T21:53:55.140Z,38.30
2018-01-26T21:56:22.772Z,42.93
2018-01-26T21:58:50.360Z,39.90
2018-01-26T22:01:18.138Z,37.77
2018-01-26T22:03:46.085Z,34.57
2018-01-26T22:06:19.223Z,36.80
2018-01-26T22:08:46.836Z,44.17
2018-01-26T22:11:14.495Z,38.43
2018-01-26T22:13:42.287Z,29.13
2018-01-26T22:16:09.925Z,32.87
2018-01-26T22:18:37.560Z,32.50
2018-01-26T22:21:05.212Z,31.57
2018-01-26T22:23:32.712Z,33.43
2018-01-26T22:26:00.171Z,33.30
2018-01-26T22:28:27.658Z,36.87
2018-01-26T22:30:55.110Z,34.67
2018-01-26T22:33:22.616Z,31.93
2018-01-26T22:35:50.524Z,35.00
2018-01-26T22:38:18.211Z,25.87
2018-01-26T22:40:46.211Z,27.10
2018-01-26T22:43:13.875Z,27.73
2018-01-26T22:45:41.509Z,26.37
2018-01-26T22:48:09.099Z,23.17
2018-01-26T22:50:36.587Z,26.07
2018-01-26T22:53:04.563Z,25.60
2018-01-26T22:55:32.201Z,25.23
2018-01-26T22:58:00.128Z,29.57
2018-01-26T23:00:27.602Z,22.33
2018-01-26T23:03:04.228Z,25.50
2018-01-26T23:08:04.764Z,23.77
2018-01-26T23:10:32.244Z,26.50
2018-01-26T23:12:59.731Z,23.43
2018-01-26T23:15:27.190Z,23.63
2018-01-26T23:17:54.672Z,19.60
2018-01-26T23:20:22.142Z,23.40
2018-01-26T23:22:49.622Z,21.37
2018-01-26T23:25:17.110Z,18.30
2018-01-26T23:27:44.630Z,22.63
2018-01-26T23:30:12.106Z,17.97
2018-01-26T23:32:39.587Z,18.73
2018-01-26T23:35:07.057Z,18.47
2018-01-26T23:37:34.530Z,19.27
2018-01-26T23:40:02.001Z,20.90
2018-01-26T23:42:29.483Z,20.83
2018-01-26T23:44:56.950Z,21.53
2018-01-26T23:47:24.443Z,22.37
2018-01-26T23:49:51.902Z,19.60
2018-01-26T23:52:19.387Z,19.97
2018-01-26T23:54:46.878Z,20.10
2018-01-26T23:57:14.339Z,20.23
2018-01-26T23:59:41.843Z,18.73
